sensor_id;sensor_type;location;lat;lon;timestamp;pressure;altitude;pressure_sealevel;temperature;humidity
5755;BME280;2902;42.130;24.732;2022-08-01T00:00:10;99130.94;;;24.88;54.81
5755;BME280;2902;42.130;24.732;2022-08-01T00:02:37;99126.84;;;24.91;54.32
5755;BME280;2902;42.130;24.732;2022-08-01T00:05:04;99126.72;;;24.82;54.74
5755;BME280;2902;42.130;24.732;2022-08-01T00:07:32;99123.25;;;24.77;54.96
5755;BME280;2902;42.130;24.732;2022-08-01T00:09:58;99129.66;;;24.67;55.32
5755;BME280;2902;42.130;24.732;2022-08-01T00:12:25;99126.88;;;24.72;55.33
5755;BME280;2902;42.130;24.732;2022-08-01T00:14:52;99121.00;;;24.65;55.66
5755;BME280;2902;42.130;24.732;2022-08-01T00:17:20;99123.44;;;24.67;55.26
5755;BME280;2902;42.130;24.732;2022-08-01T00:19:46;99099.50;;;24.50;55.89
5755;BME280;2902;42.130;24.732;2022-08-01T00:22:13;99113.81;;;24.37;56.47
5755;BME280;2902;42.130;24.732;2022-08-01T00:24:40;99118.00;;;24.30;56.63
5755;BME280;2902;42.130;24.732;2022-08-01T00:27:07;99119.81;;;24.34;56.39
5755;BME280;2902;42.130;24.732;2022-08-01T00:29:33;99120.78;;;24.25;56.79
5755;BME280;2902;42.130;24.732;2022-08-01T00:32:00;99122.19;;;24.22;56.56
5755;BME280;2902;42.130;24.732;2022-08-01T00:34:28;99127.09;;;24.20;56.86
5755;BME280;2902;42.130;24.732;2022-08-01T00:36:55;99128.63;;;24.26;56.60
5755;BME280;2902;42.130;24.732;2022-08-01T00:39:21;99125.19;;;24.21;56.84
5755;BME280;2902;42.130;24.732;2022-08-01T00:41:48;99129.25;;;24.23;56.39
5755;BME280;2902;42.130;24.732;2022-08-01T00:44:15;99126.28;;;24.20;56.01
5755;BME280;2902;42.130;24.732;2022-08-01T00:46:42;99119.69;;;24.07;56.58
5755;BME280;2902;42.130;24.732;2022-08-01T00:49:09;99129.72;;;24.07;56.71
5755;BME280;2902;42.130;24.732;2022-08-01T00:51:37;99130.47;;;24.12;56.65
5755;BME280;2902;42.130;24.732;2022-08-01T00:54:04;99126.66;;;24.13;56.39
5755;BME280;2902;42.130;24.732;2022-08-01T00:56:31;99130.75;;;23.92;56.77
5755;BME280;2902;42.130;24.732;2022-08-01T00:58:58;99124.03;;;23.85;56.85
5755;BME280;2902;42.130;24.732;2022-08-01T01:01:25;99127.41;;;23.77;57.28
5755;BME280;2902;42.130;24.732;2022-08-01T01:03:52;99128.72;;;23.79;57.21
5755;BME280;2902;42.130;24.732;2022-08-01T01:06:26;99126.06;;;23.74;57.11
5755;BME280;2902;42.130;24.732;2022-08-01T01:09:05;99130.47;;;23.70;57.29
5755;BME280;2902;42.130;24.732;2022-08-01T01:11:44;99131.03;;;23.67;57.30
5755;BME280;2902;42.130;24.732;2022-08-01T01:14:23;99130.22;;;23.67;57.37
5755;BME280;2902;42.130;24.732;2022-08-01T01:16:54;99141.19;;;23.57;57.49
5755;BME280;2902;42.130;24.732;2022-08-01T01:19:24;99135.53;;;23.53;57.73
5755;BME280;2902;42.130;24.732;2022-08-01T01:22:14;99134.25;;;23.46;57.95
5755;BME280;2902;42.130;24.732;2022-08-01T01:24:58;99145.63;;;23.48;57.87
5755;BME280;2902;42.130;24.732;2022-08-01T01:27:36;99147.19;;;23.54;58.20
5755;BME280;2902;42.130;24.732;2022-08-01T01:30:07;99138.22;;;23.53;57.93
5755;BME280;2902;42.130;24.732;2022-08-01T01:32:37;99133.13;;;23.52;58.41
5755;BME280;2902;42.130;24.732;2022-08-01T01:35:07;99141.31;;;23.70;57.58
5755;BME280;2902;42.130;24.732;2022-08-01T01:37:38;99142.44;;;23.64;57.63
5755;BME280;2902;42.130;24.732;2022-08-01T01:40:07;99141.06;;;23.67;57.78
5755;BME280;2902;42.130;24.732;2022-08-01T01:42:36;99141.34;;;23.65;58.01
5755;BME280;2902;42.130;24.732;2022-08-01T01:45:07;99141.66;;;23.64;58.12
5755;BME280;2902;42.130;24.732;2022-08-01T01:47:35;99144.66;;;23.62;58.10
5755;BME280;2902;42.130;24.732;2022-08-01T01:50:04;99137.03;;;23.64;58.14
5755;BME280;2902;42.130;24.732;2022-08-01T01:52:32;99132.63;;;23.68;58.02
5755;BME280;2902;42.130;24.732;2022-08-01T01:55:01;99133.22;;;23.65;57.81
5755;BME280;2902;42.130;24.732;2022-08-01T01:57:32;99121.22;;;23.71;58.06
5755;BME280;2902;42.130;24.732;2022-08-01T02:00:02;99140.28;;;23.66;57.98
5755;BME280;2902;42.130;24.732;2022-08-01T02:02:34;99139.59;;;23.56;58.13
5755;BME280;2902;42.130;24.732;2022-08-01T02:05:03;99135.53;;;23.53;57.91
5755;BME280;2902;42.130;24.732;2022-08-01T02:07:30;99131.25;;;23.47;58.89
5755;BME280;2902;42.130;24.732;2022-08-01T02:09:59;99131.38;;;23.37;58.30
5755;BME280;2902;42.130;24.732;2022-08-01T02:12:28;99131.47;;;23.27;58.62
5755;BME280;2902;42.130;24.732;2022-08-01T02:14:55;99132.75;;;23.35;57.99
5755;BME280;2902;42.130;24.732;2022-08-01T02:17:24;99131.28;;;23.19;58.21
5755;BME280;2902;42.130;24.732;2022-08-01T02:19:53;99133.16;;;23.18;58.51
5755;BME280;2902;42.130;24.732;2022-08-01T02:22:26;99133.69;;;23.25;58.77
5755;BME280;2902;42.130;24.732;2022-08-01T02:24:56;99130.34;;;23.33;57.93
5755;BME280;2902;42.130;24.732;2022-08-01T02:27:29;99128.69;;;23.32;58.18
5755;BME280;2902;42.130;24.732;2022-08-01T02:29:58;99137.84;;;23.41;57.61
5755;BME280;2902;42.130;24.732;2022-08-01T02:32:31;99128.97;;;23.36;57.50
5755;BME280;2902;42.130;24.732;2022-08-01T02:35:01;99133.50;;;23.12;58.43
5755;BME280;2902;42.130;24.732;2022-08-01T02:37:31;99129.00;;;23.02;58.51
5755;BME280;2902;42.130;24.732;2022-08-01T02:40:00;99131.59;;;23.12;58.51
5755;BME280;2902;42.130;24.732;2022-08-01T02:42:29;99130.38;;;23.00;58.71
5755;BME280;2902;42.130;24.732;2022-08-01T02:44:57;99131.97;;;23.01;58.43
5755;BME280;2902;42.130;24.732;2022-08-01T02:47:26;99119.88;;;22.93;58.92
5755;BME280;2902;42.130;24.732;2022-08-01T02:49:55;99124.78;;;22.86;58.72
5755;BME280;2902;42.130;24.732;2022-08-01T02:52:25;99119.88;;;22.93;58.70
5755;BME280;2902;42.130;24.732;2022-08-01T02:54:54;99126.38;;;22.92;58.11
5755;BME280;2902;42.130;24.732;2022-08-01T02:57:23;99127.72;;;22.95;58.15
5755;BME280;2902;42.130;24.732;2022-08-01T02:59:51;99121.47;;;22.94;58.45
5755;BME280;2902;42.130;24.732;2022-08-01T03:02:20;99125.03;;;22.90;58.07
5755;BME280;2902;42.130;24.732;2022-08-01T03:04:50;99125.94;;;22.80;58.32
5755;BME280;2902;42.130;24.732;2022-08-01T03:07:19;99126.28;;;22.69;58.53
5755;BME280;2902;42.130;24.732;2022-08-01T03:09:51;99128.75;;;22.65;58.36
5755;BME280;2902;42.130;24.732;2022-08-01T03:12:22;99130.16;;;22.63;58.48
5755;BME280;2902;42.130;24.732;2022-08-01T03:14:51;99120.16;;;22.58;58.36
5755;BME280;2902;42.130;24.732;2022-08-01T03:17:21;99121.00;;;22.54;58.29
5755;BME280;2902;42.130;24.732;2022-08-01T03:19:49;99115.28;;;22.60;58.11
5755;BME280;2902;42.130;24.732;2022-08-01T03:22:18;99122.06;;;22.58;57.82
5755;BME280;2902;42.130;24.732;2022-08-01T03:24:48;99118.44;;;22.67;57.23
5755;BME280;2902;42.130;24.732;2022-08-01T03:27:17;99123.34;;;22.65;57.20
5755;BME280;2902;42.130;24.732;2022-08-01T03:29:45;99122.19;;;22.76;56.81
5755;BME280;2902;42.130;24.732;2022-08-01T03:32:13;99119.47;;;22.76;56.73
5755;BME280;2902;42.130;24.732;2022-08-01T03:34:41;99122.69;;;22.78;56.46
5755;BME280;2902;42.130;24.732;2022-08-01T03:37:11;99118.81;;;22.89;55.68
5755;BME280;2902;42.130;24.732;2022-08-01T03:39:46;99116.72;;;22.81;55.89
5755;BME280;2902;42.130;24.732;2022-08-01T03:42:17;99118.44;;;22.72;56.29
5755;BME280;2902;42.130;24.732;2022-08-01T03:44:48;99113.25;;;22.76;55.88
5755;BME280;2902;42.130;24.732;2022-08-01T03:47:21;99112.19;;;22.72;56.05
5755;BME280;2902;42.130;24.732;2022-08-01T03:49:49;99114.84;;;22.77;55.88
5755;BME280;2902;42.130;24.732;2022-08-01T03:52:18;99116.19;;;22.79;55.61
5755;BME280;2902;42.130;24.732;2022-08-01T03:54:49;99119.03;;;22.93;55.07
5755;BME280;2902;42.130;24.732;2022-08-01T03:57:20;99124.75;;;22.91;55.05
5755;BME280;2902;42.130;24.732;2022-08-01T03:59:48;99117.59;;;23.05;54.65
5755;BME280;2902;42.130;24.732;2022-08-01T04:02:16;99117.97;;;23.22;54.13
5755;BME280;2902;42.130;24.732;2022-08-01T04:04:44;99119.84;;;23.50;52.92
5755;BME280;2902;42.130;24.732;2022-08-01T04:07:22;99124.59;;;24.24;50.24
5755;BME280;2902;42.130;24.732;2022-08-01T04:09:49;99127.09;;;25.22;48.21
5755;BME280;2902;42.130;24.732;2022-08-01T04:12:16;99133.69;;;26.15;46.03
5755;BME280;2902;42.130;24.732;2022-08-01T04:14:44;99142.84;;;26.90;43.64
5755;BME280;2902;42.130;24.732;2022-08-01T04:17:11;99147.19;;;27.83;41.47
5755;BME280;2902;42.130;24.732;2022-08-01T04:19:38;99148.31;;;28.55;39.51
5755;BME280;2902;42.130;24.732;2022-08-01T04:22:05;99146.31;;;29.32;38.09
5755;BME280;2902;42.130;24.732;2022-08-01T04:24:34;99151.31;;;30.05;36.78
5755;BME280;2902;42.130;24.732;2022-08-01T04:27:05;99155.72;;;30.68;35.42
5755;BME280;2902;42.130;24.732;2022-08-01T04:29:36;99154.50;;;30.98;34.18
5755;BME280;2902;42.130;24.732;2022-08-01T04:32:06;99149.72;;;31.39;33.47
5755;BME280;2902;42.130;24.732;2022-08-01T04:34:34;99154.38;;;31.83;32.74
5755;BME280;2902;42.130;24.732;2022-08-01T04:37:01;99159.53;;;32.21;32.08
5755;BME280;2902;42.130;24.732;2022-08-01T04:39:31;99154.97;;;32.64;31.90
5755;BME280;2902;42.130;24.732;2022-08-01T04:42:04;99168.59;;;33.00;30.57
5755;BME280;2902;42.130;24.732;2022-08-01T04:44:31;99157.31;;;32.50;31.10
5755;BME280;2902;42.130;24.732;2022-08-01T04:46:59;99162.81;;;32.50;31.09
5755;BME280;2902;42.130;24.732;2022-08-01T04:49:30;99154.84;;;32.61;30.54
5755;BME280;2902;42.130;24.732;2022-08-01T04:51:57;99156.34;;;32.58;30.44
5755;BME280;2902;42.130;24.732;2022-08-01T04:54:25;99148.22;;;32.62;30.27
5755;BME280;2902;42.130;24.732;2022-08-01T04:56:53;99153.53;;;32.43;30.12
5755;BME280;2902;42.130;24.732;2022-08-01T04:59:21;99155.88;;;32.68;29.50
5755;BME280;2902;42.130;24.732;2022-08-01T05:02:06;99157.09;;;32.43;29.83
5755;BME280;2902;42.130;24.732;2022-08-01T05:04:35;99158.47;;;32.25;30.08
5755;BME280;2902;42.130;24.732;2022-08-01T05:07:02;99160.31;;;32.33;29.61
5755;BME280;2902;42.130;24.732;2022-08-01T05:09:29;99156.41;;;32.46;29.75
5755;BME280;2902;42.130;24.732;2022-08-01T05:11:57;99150.00;;;32.42;29.71
5755;BME280;2902;42.130;24.732;2022-08-01T05:14:24;99158.63;;;32.17;29.95
5755;BME280;2902;42.130;24.732;2022-08-01T05:16:51;99155.50;;;32.18;30.02
5755;BME280;2902;42.130;24.732;2022-08-01T05:19:18;99159.88;;;32.07;29.76
5755;BME280;2902;42.130;24.732;2022-08-01T05:21:47;99154.47;;;32.23;29.66
5755;BME280;2902;42.130;24.732;2022-08-01T05:24:13;99152.38;;;32.56;29.75
5755;BME280;2902;42.130;24.732;2022-08-01T05:26:40;99150.25;;;32.13;30.00
5755;BME280;2902;42.130;24.732;2022-08-01T05:29:07;99155.50;;;32.70;29.62
5755;BME280;2902;42.130;24.732;2022-08-01T05:31:34;99153.25;;;32.99;29.43
5755;BME280;2902;42.130;24.732;2022-08-01T05:34:01;99146.34;;;33.05;29.12
5755;BME280;2902;42.130;24.732;2022-08-01T05:36:28;99152.31;;;33.23;28.66
5755;BME280;2902;42.130;24.732;2022-08-01T05:38:56;99151.88;;;33.05;29.24
5755;BME280;2902;42.130;24.732;2022-08-01T05:41:22;99155.56;;;33.41;28.11
5755;BME280;2902;42.130;24.732;2022-08-01T05:43:49;99151.03;;;33.33;27.71
5755;BME280;2902;42.130;24.732;2022-08-01T05:46:16;99159.31;;;33.79;27.62
5755;BME280;2902;42.130;24.732;2022-08-01T05:48:43;99157.09;;;34.00;26.85
5755;BME280;2902;42.130;24.732;2022-08-01T05:51:09;99153.56;;;34.00;26.05
5755;BME280;2902;42.130;24.732;2022-08-01T05:53:36;99150.53;;;34.24;26.84
5755;BME280;2902;42.130;24.732;2022-08-01T05:56:04;99158.47;;;34.41;25.33
5755;BME280;2902;42.130;24.732;2022-08-01T05:58:31;99156.81;;;34.05;25.43
5755;BME280;2902;42.130;24.732;2022-08-01T06:00:58;99140.75;;;33.45;25.67
5755;BME280;2902;42.130;24.732;2022-08-01T06:03:25;99137.91;;;33.73;25.23
5755;BME280;2902;42.130;24.732;2022-08-01T06:05:52;99148.69;;;33.93;25.05
5755;BME280;2902;42.130;24.732;2022-08-01T06:08:18;99154.97;;;33.78;24.42
5755;BME280;2902;42.130;24.732;2022-08-01T06:10:45;99152.41;;;34.01;24.46
5755;BME280;2902;42.130;24.732;2022-08-01T06:13:13;99146.94;;;34.04;24.40
5755;BME280;2902;42.130;24.732;2022-08-01T06:15:40;99145.38;;;33.57;24.30
5755;BME280;2902;42.130;24.732;2022-08-01T06:18:07;99140.94;;;33.24;25.73
5755;BME280;2902;42.130;24.732;2022-08-01T06:20:34;99137.06;;;32.82;24.91
5755;BME280;2902;42.130;24.732;2022-08-01T06:23:00;99143.94;;;33.04;25.05
5755;BME280;2902;42.130;24.732;2022-08-01T06:25:27;99140.91;;;32.93;24.91
5755;BME280;2902;42.130;24.732;2022-08-01T06:27:54;99134.19;;;33.06;24.70
5755;BME280;2902;42.130;24.732;2022-08-01T06:30:22;99134.75;;;32.84;24.69
5755;BME280;2902;42.130;24.732;2022-08-01T06:32:49;99134.75;;;32.84;25.28
5755;BME280;2902;42.130;24.732;2022-08-01T06:35:17;99125.50;;;32.01;25.03
5755;BME280;2902;42.130;24.732;2022-08-01T06:37:44;99121.28;;;32.04;26.05
5755;BME280;2902;42.130;24.732;2022-08-01T06:40:12;99132.81;;;31.61;26.23
5755;BME280;2902;42.130;24.732;2022-08-01T06:42:39;99121.72;;;31.70;25.73
5755;BME280;2902;42.130;24.732;2022-08-01T06:45:07;99127.56;;;31.56;26.63
5755;BME280;2902;42.130;24.732;2022-08-01T06:47:36;99123.84;;;31.28;26.02
5755;BME280;2902;42.130;24.732;2022-08-01T06:50:04;99129.09;;;31.21;27.01
5755;BME280;2902;42.130;24.732;2022-08-01T06:52:31;99123.94;;;31.20;26.89
5755;BME280;2902;42.130;24.732;2022-08-01T06:54:58;99122.97;;;31.48;26.13
5755;BME280;2902;42.130;24.732;2022-08-01T06:57:24;99116.50;;;31.77;26.51
5755;BME280;2902;42.130;24.732;2022-08-01T06:59:51;99118.19;;;32.05;25.76
5755;BME280;2902;42.130;24.732;2022-08-01T07:02:18;99105.88;;;32.39;25.90
5755;BME280;2902;42.130;24.732;2022-08-01T07:04:46;99105.59;;;32.04;25.53
5755;BME280;2902;42.130;24.732;2022-08-01T07:07:13;99102.88;;;31.80;25.90
5755;BME280;2902;42.130;24.732;2022-08-01T07:09:40;99113.25;;;31.63;26.80
5755;BME280;2902;42.130;24.732;2022-08-01T07:12:08;99103.09;;;31.99;26.05
5755;BME280;2902;42.130;24.732;2022-08-01T07:14:35;99106.34;;;32.29;25.63
5755;BME280;2902;42.130;24.732;2022-08-01T07:17:02;99101.06;;;32.36;25.28
5755;BME280;2902;42.130;24.732;2022-08-01T07:19:28;99099.16;;;32.12;26.43
5755;BME280;2902;42.130;24.732;2022-08-01T07:21:57;99104.38;;;32.41;25.60
5755;BME280;2902;42.130;24.732;2022-08-01T07:24:23;99104.91;;;32.07;26.02
5755;BME280;2902;42.130;24.732;2022-08-01T07:26:50;99101.88;;;32.36;27.13
5755;BME280;2902;42.130;24.732;2022-08-01T07:29:19;99109.28;;;32.48;25.59
5755;BME280;2902;42.130;24.732;2022-08-01T07:31:46;99107.31;;;32.60;25.94
5755;BME280;2902;42.130;24.732;2022-08-01T07:34:12;99108.13;;;32.88;25.62
5755;BME280;2902;42.130;24.732;2022-08-01T07:36:39;99103.91;;;33.06;25.29
5755;BME280;2902;42.130;24.732;2022-08-01T07:39:07;99091.38;;;33.24;24.87
5755;BME280;2902;42.130;24.732;2022-08-01T07:41:34;99087.50;;;32.55;25.90
5755;BME280;2902;42.130;24.732;2022-08-01T07:44:00;99075.19;;;32.64;25.63
5755;BME280;2902;42.130;24.732;2022-08-01T07:46:27;99076.41;;;31.88;25.60
5755;BME280;2902;42.130;24.732;2022-08-01T07:48:55;99072.28;;;31.58;25.76
5755;BME280;2902;42.130;24.732;2022-08-01T07:51:22;99068.28;;;31.67;25.73
5755;BME280;2902;42.130;24.732;2022-08-01T07:53:49;99081.19;;;32.03;26.02
5755;BME280;2902;42.130;24.732;2022-08-01T07:56:17;99079.00;;;32.60;26.03
5755;BME280;2902;42.130;24.732;2022-08-01T07:58:44;99082.38;;;32.96;25.04
5755;BME280;2902;42.130;24.732;2022-08-01T08:01:11;99072.59;;;32.83;25.21
5755;BME280;2902;42.130;24.732;2022-08-01T08:03:38;99071.28;;;33.36;24.59
5755;BME280;2902;42.130;24.732;2022-08-01T08:06:05;99064.72;;;32.70;24.40
5755;BME280;2902;42.130;24.732;2022-08-01T08:08:32;99078.59;;;32.73;25.38
5755;BME280;2902;42.130;24.732;2022-08-01T08:10:59;99073.34;;;33.11;25.21
5755;BME280;2902;42.130;24.732;2022-08-01T08:13:28;99052.97;;;32.57;25.58
5755;BME280;2902;42.130;24.732;2022-08-01T08:15:54;99059.34;;;32.73;25.39
5755;BME280;2902;42.130;24.732;2022-08-01T08:18:23;99068.78;;;32.60;24.52
5755;BME280;2902;42.130;24.732;2022-08-01T08:20:50;99049.91;;;32.31;25.02
5755;BME280;2902;42.130;24.732;2022-08-01T08:23:16;99050.88;;;32.66;25.24
5755;BME280;2902;42.130;24.732;2022-08-01T08:26:00;99047.28;;;32.50;25.40
5755;BME280;2902;42.130;24.732;2022-08-01T08:28:28;99053.28;;;32.40;24.81
5755;BME280;2902;42.130;24.732;2022-08-01T08:30:55;99063.38;;;32.36;25.67
5755;BME280;2902;42.130;24.732;2022-08-01T08:33:22;99050.56;;;32.28;25.66
5755;BME280;2902;42.130;24.732;2022-08-01T08:35:48;99044.16;;;32.24;25.81
5755;BME280;2902;42.130;24.732;2022-08-01T08:38:15;99045.81;;;33.11;25.45
5755;BME280;2902;42.130;24.732;2022-08-01T08:40:42;99053.25;;;32.95;25.89
5755;BME280;2902;42.130;24.732;2022-08-01T08:43:09;99065.09;;;32.68;25.12
5755;BME280;2902;42.130;24.732;2022-08-01T08:45:38;99052.91;;;32.54;25.81
5755;BME280;2902;42.130;24.732;2022-08-01T08:48:05;99052.84;;;32.26;25.71
5755;BME280;2902;42.130;24.732;2022-08-01T08:50:32;99042.06;;;32.61;26.10
5755;BME280;2902;42.130;24.732;2022-08-01T08:53:00;99047.78;;;32.40;25.85
5755;BME280;2902;42.130;24.732;2022-08-01T08:55:28;99039.28;;;32.45;26.17
5755;BME280;2902;42.130;24.732;2022-08-01T08:57:56;99040.69;;;32.39;25.81
5755;BME280;2902;42.130;24.732;2022-08-01T09:00:25;99041.47;;;32.67;25.88
5755;BME280;2902;42.130;24.732;2022-08-01T09:02:53;99034.06;;;32.56;25.86
5755;BME280;2902;42.130;24.732;2022-08-01T09:05:23;99033.13;;;32.79;25.78
5755;BME280;2902;42.130;24.732;2022-08-01T09:07:51;99043.19;;;32.44;25.89
5755;BME280;2902;42.130;24.732;2022-08-01T09:10:18;99036.09;;;32.43;25.76
5755;BME280;2902;42.130;24.732;2022-08-01T09:13:08;99045.06;;;32.56;26.14
5755;BME280;2902;42.130;24.732;2022-08-01T09:15:40;99039.34;;;33.04;26.75
5755;BME280;2902;42.130;24.732;2022-08-01T09:18:09;99025.91;;;32.87;25.74
5755;BME280;2902;42.130;24.732;2022-08-01T09:20:55;99021.69;;;32.77;26.28
5755;BME280;2902;42.130;24.732;2022-08-01T09:23:34;99010.38;;;32.94;26.03
5755;BME280;2902;42.130;24.732;2022-08-01T09:26:01;99014.22;;;32.62;25.90
5755;BME280;2902;42.130;24.732;2022-08-01T09:28:29;99025.38;;;32.54;26.88
5755;BME280;2902;42.130;24.732;2022-08-01T09:30:56;99016.69;;;32.12;26.54
5755;BME280;2902;42.130;24.732;2022-08-01T09:33:24;98997.50;;;32.00;26.89
5755;BME280;2902;42.130;24.732;2022-08-01T09:35:54;99016.56;;;32.21;26.73
5755;BME280;2902;42.130;24.732;2022-08-01T09:38:22;99015.97;;;32.27;26.68
5755;BME280;2902;42.130;24.732;2022-08-01T09:40:52;99014.28;;;32.50;26.85
5755;BME280;2902;42.130;24.732;2022-08-01T09:43:20;99016.88;;;32.59;26.96
5755;BME280;2902;42.130;24.732;2022-08-01T09:45:48;99008.84;;;32.26;26.66
5755;BME280;2902;42.130;24.732;2022-08-01T09:48:16;98998.78;;;32.18;27.70
5755;BME280;2902;42.130;24.732;2022-08-01T09:50:45;99001.59;;;32.46;26.73
5755;BME280;2902;42.130;24.732;2022-08-01T09:53:13;98997.84;;;32.26;27.06
5755;BME280;2902;42.130;24.732;2022-08-01T09:55:41;98987.53;;;31.96;27.92
5755;BME280;2902;42.130;24.732;2022-08-01T09:58:08;99003.66;;;32.09;27.89
5755;BME280;2902;42.130;24.732;2022-08-01T10:00:37;99000.84;;;32.21;27.82
5755;BME280;2902;42.130;24.732;2022-08-01T10:03:19;98997.84;;;32.26;27.61
5755;BME280;2902;42.130;24.732;2022-08-01T10:05:48;98988.81;;;32.53;27.10
5755;BME280;2902;42.130;24.732;2022-08-01T10:08:15;98993.84;;;32.51;27.46
5755;BME280;2902;42.130;24.732;2022-08-01T10:10:43;98997.38;;;32.36;27.30
5755;BME280;2902;42.130;24.732;2022-08-01T10:13:30;98979.31;;;32.35;27.31
5755;BME280;2902;42.130;24.732;2022-08-01T10:15:57;98985.88;;;32.46;27.04
5755;BME280;2902;42.130;24.732;2022-08-01T10:18:24;98977.34;;;32.51;27.55
5755;BME280;2902;42.130;24.732;2022-08-01T10:20:53;98982.84;;;32.94;27.32
5755;BME280;2902;42.130;24.732;2022-08-01T10:23:21;98982.22;;;33.16;26.88
5755;BME280;2902;42.130;24.732;2022-08-01T10:25:49;98982.94;;;33.13;26.91
5755;BME280;2902;42.130;24.732;2022-08-01T10:28:18;98983.66;;;33.10;26.70
5755;BME280;2902;42.130;24.732;2022-08-01T10:30:47;98977.25;;;33.06;26.75
5755;BME280;2902;42.130;24.732;2022-08-01T10:33:15;98984.53;;;32.83;26.94
5755;BME280;2902;42.130;24.732;2022-08-01T10:35:45;98970.69;;;32.95;27.10
5755;BME280;2902;42.130;24.732;2022-08-01T10:38:14;98978.22;;;33.14;27.00
5755;BME280;2902;42.130;24.732;2022-08-01T10:40:42;98984.00;;;33.24;26.45
5755;BME280;2902;42.130;24.732;2022-08-01T10:43:09;98981.50;;;33.19;26.47
5755;BME280;2902;42.130;24.732;2022-08-01T10:45:36;98993.84;;;32.51;27.08
5755;BME280;2902;42.130;24.732;2022-08-01T10:48:08;98991.38;;;32.46;27.36
5755;BME280;2902;42.130;24.732;2022-08-01T10:50:39;98980.00;;;32.32;27.64
5755;BME280;2902;42.130;24.732;2022-08-01T10:53:14;98991.31;;;32.74;27.42
5755;BME280;2902;42.130;24.732;2022-08-01T10:55:48;98983.75;;;32.98;27.07
5755;BME280;2902;42.130;24.732;2022-08-01T10:58:20;98968.91;;;33.18;26.66
5755;BME280;2902;42.130;24.732;2022-08-01T11:00:48;98979.38;;;33.28;27.09
5755;BME280;2902;42.130;24.732;2022-08-01T11:03:15;98986.91;;;33.63;26.77
5755;BME280;2902;42.130;24.732;2022-08-01T11:05:42;98982.63;;;33.50;26.29
5755;BME280;2902;42.130;24.732;2022-08-01T11:08:22;98977.06;;;33.30;26.95
5755;BME280;2902;42.130;24.732;2022-08-01T11:10:59;98982.84;;;33.76;26.29
5755;BME280;2902;42.130;24.732;2022-08-01T11:16:27;98973.69;;;33.87;25.53
5755;BME280;2902;42.130;24.732;2022-08-01T11:18:54;98964.41;;;33.61;27.43
5755;BME280;2902;42.130;24.732;2022-08-01T11:21:20;98964.22;;;33.54;26.45
5755;BME280;2902;42.130;24.732;2022-08-01T11:23:51;98967.78;;;32.88;27.58
5755;BME280;2902;42.130;24.732;2022-08-01T11:26:19;98962.06;;;32.97;27.34
5755;BME280;2902;42.130;24.732;2022-08-01T11:29:11;98961.28;;;32.96;26.21
5755;BME280;2902;42.130;24.732;2022-08-01T11:31:38;98970.44;;;33.16;27.46
5755;BME280;2902;42.130;24.732;2022-08-01T11:34:05;98966.56;;;33.52;26.82
5755;BME280;2902;42.130;24.732;2022-08-01T11:36:32;98961.31;;;33.81;25.96
5755;BME280;2902;42.130;24.732;2022-08-01T11:39:17;98957.94;;;34.07;25.84
5755;BME280;2902;42.130;24.732;2022-08-01T11:41:45;98961.88;;;34.06;26.29
5755;BME280;2902;42.130;24.732;2022-08-01T11:44:14;98959.25;;;33.94;26.42
5755;BME280;2902;42.130;24.732;2022-08-01T11:46:53;98966.56;;;33.86;25.88
5755;BME280;2902;42.130;24.732;2022-08-01T11:49:35;98956.78;;;33.89;25.43
5755;BME280;2902;42.130;24.732;2022-08-01T11:52:12;98958.34;;;33.71;25.90
5755;BME280;2902;42.130;24.732;2022-08-01T11:54:42;98946.28;;;33.60;25.77
5755;BME280;2902;42.130;24.732;2022-08-01T11:57:11;98943.38;;;33.53;26.30
5755;BME280;2902;42.130;24.732;2022-08-01T11:59:40;98943.31;;;33.33;26.50
5755;BME280;2902;42.130;24.732;2022-08-01T12:02:22;98931.94;;;33.19;26.91
5755;BME280;2902;42.130;24.732;2022-08-01T12:04:52;98934.28;;;33.17;26.80
5755;BME280;2902;42.130;24.732;2022-08-01T12:07:19;98951.16;;;33.66;26.93
5755;BME280;2902;42.130;24.732;2022-08-01T12:09:47;98951.69;;;33.91;25.81
5755;BME280;2902;42.130;24.732;2022-08-01T12:12:16;98938.31;;;33.39;26.10
5755;BME280;2902;42.130;24.732;2022-08-01T12:14:52;98945.28;;;33.17;26.32
5755;BME280;2902;42.130;24.732;2022-08-01T12:17:26;98949.63;;;33.69;26.28
5755;BME280;2902;42.130;24.732;2022-08-01T12:19:53;98946.84;;;33.84;25.46
5755;BME280;2902;42.130;24.732;2022-08-01T12:22:22;98941.00;;;33.70;26.28
5755;BME280;2902;42.130;24.732;2022-08-01T12:24:51;98944.03;;;34.00;25.20
5755;BME280;2902;42.130;24.732;2022-08-01T12:27:25;98935.91;;;33.88;25.05
5755;BME280;2902;42.130;24.732;2022-08-01T12:29:52;98936.31;;;33.90;25.08
5755;BME280;2902;42.130;24.732;2022-08-01T12:32:24;98940.78;;;33.60;25.54
5755;BME280;2902;42.130;24.732;2022-08-01T12:34:52;98938.19;;;33.86;25.81
5755;BME280;2902;42.130;24.732;2022-08-01T12:37:19;98932.16;;;33.80;25.42
5755;BME280;2902;42.130;24.732;2022-08-01T12:39:47;98916.81;;;33.45;26.98
5755;BME280;2902;42.130;24.732;2022-08-01T12:42:15;98916.75;;;33.41;26.52
5755;BME280;2902;42.130;24.732;2022-08-01T12:44:44;98919.28;;;33.50;27.36
5755;BME280;2902;42.130;24.732;2022-08-01T12:47:12;98919.66;;;33.48;27.27
5755;BME280;2902;42.130;24.732;2022-08-01T12:49:42;98931.19;;;33.54;26.15
5755;BME280;2902;42.130;24.732;2022-08-01T12:52:09;98917.69;;;33.49;26.21
5755;BME280;2902;42.130;24.732;2022-08-01T12:55:05;98923.19;;;33.49;26.23
5755;BME280;2902;42.130;24.732;2022-08-01T12:57:35;98909.88;;;33.51;28.09
5755;BME280;2902;42.130;24.732;2022-08-01T13:00:08;98906.72;;;33.33;25.85
5755;BME280;2902;42.130;24.732;2022-08-01T13:02:35;98910.00;;;33.23;26.60
5755;BME280;2902;42.130;24.732;2022-08-01T13:05:03;98910.56;;;33.13;26.42
5755;BME280;2902;42.130;24.732;2022-08-01T13:07:41;98902.25;;;33.28;28.37
5755;BME280;2902;42.130;24.732;2022-08-01T13:10:09;98912.06;;;33.10;27.69
5755;BME280;2902;42.130;24.732;2022-08-01T13:12:39;98904.25;;;33.12;26.91
5755;BME280;2902;42.130;24.732;2022-08-01T13:15:20;98897.44;;;33.06;26.38
5755;BME280;2902;42.130;24.732;2022-08-01T13:17:48;98910.13;;;32.95;26.98
5755;BME280;2902;42.130;24.732;2022-08-01T13:20:33;98899.38;;;33.21;27.97
5755;BME280;2902;42.130;24.732;2022-08-01T13:23:13;98904.00;;;33.17;26.42